Data for 02/02/2005

Time Sea-Level Adjusted Pressure Absolute Pressure Temperature Relative Humidity Dew Point   
(mb) (inHg) (mb) (inHg) (C) (F) (%) (C) (F)
00:05 1027 30.33 856 25.28 0.3 32.5 57 -7.4 18.7
00:10 1027 30.33 856 25.28 0.5 32.9 54 -7.8 18
00:15 1027 30.33 856 25.28 0.7 33.2 53 -7.8 18
00:20 1027 30.33 856 25.28 0.8 33.5 52 -7.9 17.8
00:25 1027 30.33 856 25.28 0.9 33.6 53 -7.6 18.3
00:30 1027 30.33 856 25.28 0.5 33 54 -7.7 18.1
00:35 1027 30.33 856 25.28 0.5 32.8 54 -7.8 18
00:40 1027 30.33 856 25.28 0.5 32.8 54 -7.8 18
00:45 1027 30.33 856 25.28 0.5 32.9 54 -7.8 18
00:50 1027 30.33 856 25.28 0.6 33 54 -7.8 18
00:55 1027 30.33 856 25.28 0.5 32.9 53 -8 17.7
01:00 1027 30.33 856 25.28 0.7 33.2 52 -8.1 17.5
01:05 1027 30.33 856 25.28 0.8 33.5 52 -8 17.5
01:10 1027 30.33 856 25.28 0.8 33.4 52 -8.1 17.4
01:15 1027 30.33 856 25.28 0.7 33.2 52 -8.1 17.4
01:20 1026 30.3 856 25.28 0 32 60 -6.7 19.9
01:25 1026 30.3 856 25.28 -0.4 31.3 58 -7.6 18.3
01:30 1026 30.3 855 25.25 -0.1 31.8 55 -8.1 17.5
01:35 1026 30.3 856 25.28 0.3 32.5 53 -8.3 17.1
01:40 1026 30.3 856 25.28 0.6 33.1 52 -8.1 17.3
01:45 1026 30.3 855 25.25 0.6 33 52 -8.2 17.2
01:50 1026 30.3 855 25.25 0.6 33.1 51 -8.3 17
01:55 1026 30.3 855 25.25 0.8 33.5 51 -8.2 17.2
02:00 1026 30.3 855 25.25 0.8 33.4 52 -8.1 17.4
02:05 1026 30.3 856 25.28 0.7 33.2 51 -8.2 17.2
02:10 1026 30.3 856 25.28 0.8 33.5 50 -8.6 16.6
02:15 1026 30.3 856 25.28 1 33.8 49 -8.5 16.7
02:20 1026 30.3 856 25.28 0.6 33 53 -7.9 17.8
02:25 1026 30.3 856 25.28 -0.2 31.6 56 -8 17.5
02:30 1026 30.3 856 25.28 -0.4 31.3 56 -8.1 17.3
02:35 1026 30.3 856 25.28 -0.6 31 57 -8.1 17.4
02:40 1026 30.3 855 25.25 -0.6 30.9 57 -8 17.5
02:45 1026 30.3 855 25.25 -0.6 31 58 -7.8 17.9
02:50 1026 30.3 856 25.28 -0.7 30.7 63 -6.9 19.5
02:55 1026 30.3 856 25.28 -1.6 29.1 65 -7.3 18.9
03:00 1026 30.3 855 25.25 -1.3 29.7 62 -7.6 18.3
03:05 1026 30.3 855 25.25 -1 30.2 61 -7.5 18.5
03:10 1026 30.3 855 25.25 -0.7 30.7 59 -7.7 18.1
03:15 1026 30.3 855 25.25 -0.3 31.4 58 -7.5 18.4
03:20 1026 30.3 855 25.25 -0 32 53 -8.5 16.6
03:25 1026 30.3 855 25.25 0.7 33.3 51 -8.3 17
03:30 1026 30.3 855 25.25 1 33.9 47 -8.9 15.9
03:35 1026 30.3 855 25.25 1.6 34.8 46 -8.9 16
03:40 1026 30.3 855 25.25 2 35.6 43 -9.3 15.2
03:45 1026 30.3 855 25.25 2.4 36.3 42 -9.2 15.5
03:50 1026 30.3 855 25.25 2.4 36.4 43 -8.9 16
03:55 1026 30.3 855 25.25 2.3 36.1 46 -8.1 17.4
04:00 1026 30.3 855 25.25 1.1 33.9 52 -7.7 18.1
04:05 1026 30.3 855 25.25 -0 32 57 -7.4 18.6
04:10 1026 30.3 855 25.25 -0.6 31 59 -7.6 18.3
04:15 1026 30.3 855 25.25 -0.7 30.7 58 -7.9 17.7
04:20 1026 30.3 855 25.25 -0.5 31.2 57 -8.1 17.5
04:25 1026 30.3 855 25.25 -0.4 31.3 58 -7.6 18.3
04:30 1026 30.3 855 25.25 -0.8 30.6 61 -7.3 18.8
04:35 1026 30.3 855 25.25 -0.2 31.6 55 -8.1 17.4
04:40 1026 30.3 855 25.25 0.4 32.8 53 -8 17.6
04:45 1026 30.3 855 25.25 0.5 32.9 51 -8.4 16.9
04:50 1026 30.3 855 25.25 0.5 33 52 -8.1 17.4
04:55 1026 30.3 855 25.25 0.4 32.6 53 -8.2 17.3
05:00 1026 30.3 855 25.25 0.8 33.4 50 -8.4 16.9
05:05 1026 30.3 855 25.25 0.9 33.6 50 -8.4 16.9
05:10 1026 30.3 855 25.25 1.1 34.1 49 -8.5 16.6
05:15 1026 30.3 855 25.25 1.4 34.4 48 -8.6 16.6
05:20 1026 30.3 855 25.25 1.3 34.4 51 -7.7 18.1
05:25 1026 30.3 855 25.25 0.8 33.5 52 -8.1 17.5
05:30 1026 30.3 855 25.25 0.8 33.5 52 -7.8 17.9
05:35 1026 30.3 855 25.25 1 33.8 49 -8.5 16.6
05:40 1026 30.3 855 25.25 1.5 34.8 49 -8.1 17.4
05:45 1026 30.3 855 25.25 1.2 34.2 55 -6.8 19.7
05:50 1026 30.3 855 25.25 0.2 32.3 55 -7.9 17.7
05:55 1026 30.3 855 25.25 0.6 33 51 -8.4 16.9
06:00 1026 30.3 855 25.25 1.3 34.3 47 -8.7 16.3
06:05 1026 30.3 855 25.25 1.7 35.1 47 -8.5 16.7
06:10 1026 30.3 855 25.25 1.8 35.2 43 -9.4 15
06:15 1026 30.3 855 25.25 2.3 36.2 42 -9.3 15.3
06:20 1026 30.3 855 25.25 2.3 36.2 44 -8.8 16.1
06:25 1026 30.3 855 25.25 2.4 36.3 42 -9.3 15.2
06:30 1026 30.3 855 25.25 2.4 36.4 48 -7.6 18.4
06:35 1026 30.3 855 25.25 1.6 34.9 50 -7.8 18
06:40 1026 30.3 855 25.25 1.4 34.5 51 -7.7 18.2
06:45 1026 30.3 855 25.25 1.3 34.4 52 -7.4 18.6
06:50 1026 30.3 855 25.25 0.8 33.4 57 -6.9 19.7
06:55 1026 30.3 855 25.25 0.3 32.5 59 -6.8 19.7
07:00 1026 30.3 855 25.25 -0.2 31.6 61 -6.8 19.7
07:05 1026 30.3 855 25.25 -0.4 31.2 62 -6.9 19.6
07:10 1026 30.3 855 25.25 -0.7 30.8 64 -6.7 19.9
07:15 1026 30.3 855 25.25 -0.9 30.4 64 -6.9 19.7
07:20 1026 30.3 855 25.25 -0.8 30.6 63 -7 19.3
07:25 1026 30.3 855 25.25 -0.5 31.1 63 -6.8 19.8
07:30 1026 30.3 855 25.25 -0.8 30.6 63 -7 19.4
07:35 1026 30.3 855 25.25 -0.8 30.6 63 -7 19.3
07:40 1026 30.3 855 25.25 -0.5 31.1 61 -7.2 19.1
07:45 1026 30.3 856 25.28 0.1 32.2 59 -6.9 19.6
07:50 1026 30.3 855 25.25 0.2 32.3 58 -7.1 19.1
07:55 1026 30.3 856 25.28 0.1 32.1 60 -6.8 19.8
08:00 1026 30.3 856 25.28 -0.4 31.3 60 -7.2 19.1
08:05 1026 30.3 856 25.28 -0.3 31.5 58 -7.5 18.6
08:10 1026 30.3 855 25.25 -0.1 31.8 58 -7.3 18.8
08:15 1026 30.3 855 25.25 -0 32 59 -7.1 19.2
08:20 1026 30.3 856 25.28 -0.4 31.3 61 -7 19.4
08:25 1026 30.3 856 25.28 -0.8 30.6 63 -7 19.4
08:30 1026 30.3 856 25.28 -1 30.2 65 -6.9 19.6
08:35 1026 30.3 856 25.28 -1.1 30.1 63 -7.2 19.1
08:40 1026 30.3 855 25.25 -0.7 30.8 61 -7.3 18.8
08:45 1026 30.3 855 25.25 -0 32 59 -7.1 19.2
08:50 1026 30.3 855 25.25 0.2 32.4 58 -7.1 19.1
08:55 1026 30.3 855 25.25 0.1 32.1 60 -6.7 19.9
09:00 1026 30.3 856 25.28 -0.1 31.9 61 -6.7 20
09:05 1026 30.3 856 25.28 -0.2 31.6 63 -6.5 20.3
09:10 1026 30.3 856 25.28 -0.7 30.7 64 -6.6 20
09:15 1026 30.3 856 25.28 -0.6 30.9 63 -6.9 19.6
09:20 1026 30.3 856 25.28 -0.3 31.5 61 -7 19.5
09:25 1027 30.33 856 25.28 0.3 32.5 59 -6.9 19.5
09:30 1027 30.33 856 25.28 1 33.8 55 -7.1 19.2
09:35 1027 30.33 856 25.28 1.8 35.2 55 -6.4 20.5
09:40 1027 30.33 856 25.28 2.1 35.7 51 -7.1 19.1
09:45 1027 30.33 856 25.28 3 37.5 49 -6.8 19.8
09:50 1027 30.33 856 25.28 3.6 38.4 47 -6.7 19.9
09:55 1027 30.33 856 25.28 3.9 38.9 47 -6.6 20.2
10:00 1027 30.33 856 25.28 4 39.1 49 -5.8 21.6
10:05 1027 30.33 856 25.28 3.7 38.6 48 -6.2 20.8
10:10 1027 30.33 856 25.28 4.1 39.3 45 -6.8 19.8
10:15 1027 30.33 856 25.28 4.3 39.8 44 -6.9 19.6
10:20 1027 30.33 856 25.28 4.6 40.3 43 -6.8 19.8
10:25 1027 30.33 856 25.28 5 41.1 43 -6.6 20.1
10:30 1027 30.33 856 25.28 5.4 41.7 43 -6.3 20.7
10:35 1027 30.33 856 25.28 5.8 42.5 40 -6.9 19.6
10:40 1027 30.33 856 25.28 6.4 43.5 38 -7 19.3
10:45 1027 30.33 856 25.28 6.9 44.5 33 -8.2 17.3
10:50 1027 30.33 856 25.28 7.4 45.4 32 -8.1 17.4
10:55 1027 30.33 856 25.28 7.4 45.3 35 -7.2 19
11:00 1027 30.33 856 25.28 7 44.5 35 -7.6 18.3
11:05 1027 30.33 856 25.28 7.2 45 33 -7.9 17.8
11:10 1027 30.33 856 25.28 7.5 45.5 33 -7.7 18.1
11:15 1027 30.33 856 25.28 7.9 46.3 32 -7.8 17.9
11:20 1027 30.33 856 25.28 8.4 47.2 31 -7.7 18.2
11:25 1027 30.33 856 25.28 8.8 47.9 29 -8.3 17
11:30 1027 30.33 856 25.28 8.8 47.8 29 -8.1 17.4
11:35 1027 30.33 856 25.28 8.3 46.9 30 -8.2 17.3
11:40 1027 30.33 856 25.28 8.3 46.9 30 -8.3 17.1
11:45 1027 30.33 856 25.28 9.4 48.8 28 -8 17.5
11:50 1027 30.33 856 25.28 9.6 49.2 30 -7.1 19.2
11:55 1027 30.33 856 25.28 8.7 47.6 31 -7.3 18.8
12:00 1027 30.33 856 25.28 8.7 47.7 32 -7.1 19.2
12:05 1027 30.33 856 25.28 8.9 48 33 -6.6 20.1
12:10 1027 30.33 856 25.28 9 48.2 32 -6.7 20
12:15 1027 30.33 856 25.28 9 48.3 32 -6.7 19.9
12:20 1027 30.33 856 25.28 9.2 48.6 33 -6.2 20.8
12:25 1026 30.3 856 25.28 9.3 48.7 32 -6.7 20
12:30 1026 30.3 856 25.28 9.4 48.9 32 -6.4 20.4
12:35 1026 30.3 856 25.28 9.7 49.5 31 -6.7 20
12:40 1026 30.3 856 25.28 9.6 49.2 31 -6.5 20.2
12:45 1026 30.3 856 25.28 9.6 49.2 31 -6.6 20.1
12:50 1026 30.3 856 25.28 9.5 49 32 -6.3 20.6
12:55 1026 30.3 856 25.28 9.4 48.8 32 -6.6 20.2
13:00 1026 30.3 856 25.28 9.6 49.3 32 -6.2 20.9
13:05 1026 30.3 856 25.28 9.1 48.4 33 -6.1 21
13:10 1026 30.3 856 25.28 9.2 48.5 33 -6.4 20.5
13:15 1026 30.3 856 25.28 9.5 49.1 31 -6.6 20.1
13:20 1026 30.3 856 25.28 9.4 49 33 -6.1 21
13:25 1026 30.3 856 25.28 9.3 48.7 32 -6.5 20.3
13:30 1026 30.3 855 25.25 9.7 49.4 31 -6.6 20.2
13:35 1026 30.3 855 25.25 10 49.9 31 -6.2 20.8
13:40 1026 30.3 855 25.25 10 50.1 31 -6.3 20.6
13:45 1026 30.3 855 25.25 10.3 50.5 31 -6.2 20.8
13:50 1026 30.3 855 25.25 10.4 50.8 30 -6.3 20.6
13:55 1026 30.3 855 25.25 10.2 50.3 31 -6.3 20.7
14:00 1026 30.3 855 25.25 10.3 50.5 31 -6.2 20.8
14:05 1026 30.3 855 25.25 10.8 51.4 30 -6 21.1
14:10 1026 30.3 855 25.25 10.9 51.7 30 -5.8 21.6
14:15 1026 30.3 855 25.25 10.5 50.9 31 -5.9 21.4
14:20 1026 30.3 855 25.25 10.8 51.5 31 -5.8 21.6
14:25 1026 30.3 855 25.25 11.3 52.4 30 -5.8 21.6
14:30 1026 30.3 855 25.25 11.4 52.6 30 -5.4 22.3
14:35 1026 30.3 855 25.25 11.4 52.5 30 -5.4 22.3
14:40 1026 30.3 855 25.25 11.2 52.1 30 -5.6 21.9
14:45 1026 30.3 855 25.25 11.3 52.3 31 -5.4 22.3
14:50 1026 30.3 855 25.25 11.4 52.6 30 -5.6 22
14:55 1026 30.3 855 25.25 11.5 52.6 30 -5.5 22.1
15:00 1026 30.3 855 25.25 11.6 52.9 30 -5.4 22.2
15:05 1026 30.3 855 25.25 11.8 53.2 29 -5.5 22.2
15:10 1026 30.3 855 25.25 11.5 52.7 31 -5.2 22.7
15:15 1026 30.3 855 25.25 11.2 52.2 30 -5.5 22.1
15:20 1026 30.3 855 25.25 11.3 52.3 31 -5.4 22.3
15:25 1026 30.3 855 25.25 11.3 52.3 31 -5.3 22.5
15:30 1026 30.3 855 25.25 11 51.8 31 -5.2 22.6
15:35 1026 30.3 855 25.25 10.9 51.5 32 -5.3 22.5
15:40 1026 30.3 855 25.25 10.5 50.9 33 -5.2 22.6
15:45 1026 30.3 855 25.25 10.3 50.5 33 -5.3 22.5
15:50 1026 30.3 855 25.25 10.2 50.4 33 -5.5 22.1
15:55 1026 30.3 855 25.25 10.3 50.5 33 -5.4 22.3
16:00 1026 30.3 855 25.25 10.2 50.4 33 -5.4 22.2
16:05 1026 30.3 855 25.25 10.1 50.2 33 -5.4 22.2
16:10 1026 30.3 855 25.25 10 50 33 -5.5 22.1
16:15 1026 30.3 856 25.28 9.7 49.5 34 -5.4 22.3
16:20 1026 30.3 856 25.28 9.7 49.5 34 -5.4 22.3
16:25 1026 30.3 856 25.28 9.6 49.3 34 -5.5 22
16:30 1026 30.3 856 25.28 9.5 49 34 -5.6 21.9
16:35 1026 30.3 856 25.28 9.4 48.9 34 -5.7 21.8
16:40 1027 30.33 856 25.28 9.4 49 34 -5.6 21.9
16:45 1027 30.33 856 25.28 9.3 48.8 34 -5.6 22
16:50 1027 30.33 856 25.28 9.1 48.3 35 -5.6 22
16:55 1027 30.33 856 25.28 8.9 48 35 -5.6 21.9
17:00 1027 30.33 856 25.28 9 48.3 34 -5.9 21.3
17:05 1027 30.33 856 25.28 9.2 48.6 34 -5.8 21.6
17:10 1027 30.33 856 25.28 8.9 48 35 -5.7 21.8
17:15 1027 30.33 856 25.28 8.5 47.3 36 -5.6 21.9
17:20 1027 30.33 856 25.28 8.2 46.7 37 -5.6 21.8
17:25 1027 30.33 856 25.28 8.1 46.5 39 -5.2 22.7
17:30 1027 30.33 856 25.28 7.9 46.1 39 -5.2 22.6
17:35 1027 30.33 856 25.28 7.7 45.8 40 -5 23
17:40 1027 30.33 856 25.28 7.2 45 43 -4.4 24
17:45 1027 30.33 856 25.28 6.7 44.1 46 -4.2 24.4
17:50 1027 30.33 856 25.28 6.6 43.9 44 -4.6 23.6
17:55 1027 30.33 856 25.28 6.5 43.6 46 -4.2 24.5
18:00 1027 30.33 856 25.28 6.1 43 49 -3.8 25.2
18:05 1027 30.33 856 25.28 5.1 41.3 52 -4 24.8
18:10 1027 30.33 856 25.28 4.8 40.7 52 -4.1 24.6
18:15 1027 30.33 856 25.28 4.7 40.5 52 -4.2 24.4
18:20 1027 30.33 856 25.28 5 41 52 -4.2 24.5
18:25 1027 30.33 856 25.28 4.9 40.8 52 -4.3 24.3
18:30 1027 30.33 856 25.28 4.8 40.7 50 -4.6 23.6
18:35 1027 30.33 856 25.28 4.8 40.6 52 -4.3 24.3
18:40 1027 30.33 857 25.31 4.6 40.2 54 -4 24.7
18:45 1027 30.33 856 25.28 4.4 39.8 52 -4.7 23.5
18:50 1027 30.33 856 25.28 4.2 39.6 52 -4.8 23.4
18:55 1027 30.33 857 25.31 4.5 40.1 52 -4.4 24
19:00 1027 30.33 857 25.31 4.5 40.1 50 -5 23
19:05 1027 30.33 857 25.31 4.9 40.8 50 -4.6 23.7
19:10 1027 30.33 857 25.31 4.6 40.3 52 -4.5 23.9
19:15 1027 30.33 857 25.31 4.5 40.2 47 -5.8 21.6
19:20 1027 30.33 857 25.31 5.2 41.3 45 -5.9 21.5
19:25 1028 30.36 857 25.31 5.5 41.9 44 -5.7 21.7
19:30 1028 30.36 857 25.31 5.7 42.3 43 -6 21.2
19:35 1028 30.36 857 25.31 6.1 43.1 42 -5.7 21.7
19:40 1028 30.36 857 25.31 6.3 43.3 41 -5.9 21.3
19:45 1028 30.36 857 25.31 6.5 43.7 41 -5.9 21.3
19:50 1028 30.36 857 25.31 6.5 43.7 40 -6.1 21
19:55 1028 30.36 857 25.31 6.3 43.4 42 -5.8 21.6
20:00 1028 30.36 857 25.31 6 42.8 42 -5.8 21.5
20:05 1028 30.36 857 25.31 5.8 42.4 44 -5.6 21.8
20:10 1028 30.36 857 25.31 5.1 41.2 45 -5.7 21.8
20:15 1028 30.36 857 25.31 5 41 46 -5.6 21.9
20:20 1028 30.36 857 25.31 4.8 40.6 47 -5.7 21.8
20:25 1028 30.36 857 25.31 4.5 40.2 48 -5.5 22.1
20:30 1028 30.36 857 25.31 4.1 39.4 50 -5.3 22.4
20:35 1028 30.36 857 25.31 4 39.2 49 -5.7 21.8
20:40 1028 30.36 857 25.31 4.7 40.4 45 -6.2 20.8
20:45 1028 30.36 857 25.31 4.9 40.8 45 -5.9 21.3
20:50 1028 30.36 857 25.31 4.9 40.9 44 -6.2 20.9
20:55 1028 30.36 857 25.31 4.9 40.8 45 -5.9 21.4
21:00 1028 30.36 857 25.31 4.9 40.7 45 -6 21.2
21:05 1028 30.36 857 25.31 4.7 40.4 46 -6 21.1
21:10 1028 30.36 857 25.31 4.8 40.6 45 -6.3 20.6
21:15 1028 30.36 857 25.31 5.4 41.7 42 -6.6 20.2
21:20 1028 30.36 857 25.31 5.7 42.3 41 -6.5 20.3
21:25 1028 30.36 857 25.31 5.8 42.4 41 -6.6 20.2
21:30 1028 30.36 857 25.31 5.8 42.4 41 -6.4 20.4
21:35 1028 30.36 857 25.31 5.4 41.7 45 -5.6 21.8
21:40 1028 30.36 857 25.31 3.9 39 52 -5.2 22.7
21:45 1028 30.36 857 25.31 3.4 38.1 52 -5.6 21.9
21:50 1028 30.36 857 25.31 3.5 38.3 53 -5.3 22.5
21:55 1028 30.36 857 25.31 3.1 37.5 54 -5.4 22.3
22:00 1028 30.36 857 25.31 3.1 37.6 53 -5.6 21.9
22:05 1028 30.36 857 25.31 3.2 37.7 51 -5.9 21.4
22:10 1028 30.36 857 25.31 3.3 38 52 -5.6 21.9
22:15 1028 30.36 857 25.31 3.3 38 52 -5.6 21.9
22:20 1028 30.36 857 25.31 3.4 38.2 52 -5.5 22.2
22:25 1028 30.36 857 25.31 3.2 37.8 51 -5.8 21.5
22:30 1028 30.36 857 25.31 3.3 38 52 -5.7 21.8
22:35 1028 30.36 857 25.31 3.1 37.6 54 -5.4 22.3
22:40 1028 30.36 857 25.31 3.1 37.6 56 -4.8 23.3
22:45 1028 30.36 857 25.31 3 37.4 54 -5.4 22.3
22:50 1028 30.36 857 25.31 3 37.3 56 -5 23
22:55 1028 30.36 857 25.31 2.7 36.8 56 -5.2 22.6
23:00 1028 30.36 857 25.31 2.5 36.5 57 -5.2 22.6
23:05 1028 30.36 857 25.31 2.6 36.7 56 -5.2 22.6
23:10 1028 30.36 857 25.31 2.6 36.7 55 -5.5 22.1
23:15 1028 30.36 857 25.31 2.6 36.7 54 -5.7 21.7
23:20 1028 30.36 857 25.31 2.6 36.7 54 -5.8 21.6
23:25 1028 30.36 857 25.31 2.8 37.1 53 -5.7 21.7
23:30 1028 30.36 857 25.31 2.8 37.1 53 -5.7 21.7
23:35 1028 30.36 857 25.31 2.9 37.2 52 -6 21.2
23:40 1028 30.36 857 25.31 3 37.5 51 -6.1 21
23:45 1028 30.36 857 25.31 3.1 37.6 51 -5.9 21.3
23:50 1028 30.36 857 25.31 3 37.5 51 -6 21.1
23:55 1028 30.36 857 25.31 3 37.4 51 -6.1 21
24:00 1028 30.36 857 25.31 3.1 37.6 51 -6.1 21.1